Time;durP1;ratioP1;P1;durP2;ratioP2;P2;SDS_P1;SDS_P2;PMS_P1;PMS_P2;Temp;Humidity;BMP_temperature;BMP_pressure;BME280_temperature;BME280_humidity;BME280_pressure;Samples;Min_cycle;Max_cycle;Signal;HPM_P1;HPM_P2
2022/03/17 00:00:56;;;;;;;;;30.50;26.50;;;;;8.27;64.99;101688.94;146605;570;46020;-83
2022/03/17 00:03:48;;;;;;;;;37.75;31.75;;;;;8.33;65.31;101684.22;146604;604;46014;-77
2022/03/17 00:06:41;;;;;;;;;38.75;34.25;;;;;8.36;64.35;101680.97;146606;614;46020;-76
2022/03/17 00:09:33;;;;;;;;;39.00;32.75;;;;;8.37;65.58;101681.09;146602;643;46016;-75
2022/03/17 00:12:26;;;;;;;;;27.50;23.25;;;;;8.34;64.45;101676.56;146606;563;46010;-79
2022/03/17 00:15:18;;;;;;;;;31.25;25.25;;;;;8.33;63.80;101692.88;146604;588;46016;-80
2022/03/17 00:18:11;;;;;;;;;27.75;25.50;;;;;8.37;63.85;101694.00;146607;579;46021;-79
2022/03/17 00:21:03;;;;;;;;;31.25;27.25;;;;;8.43;63.15;101694.50;146604;577;46014;-78
2022/03/17 00:23:55;;;;;;;;;31.75;27.50;;;;;8.44;63.84;101691.16;146607;592;46010;-79
2022/03/17 00:26:48;;;;;;;;;27.00;25.50;;;;;8.43;63.93;101694.50;146602;630;46017;-78
2022/03/17 00:29:41;;;;;;;;;34.75;28.25;;;;;8.36;64.35;101691.31;146606;591;46020;-79
2022/03/17 00:32:33;;;;;;;;;29.75;25.50;;;;;8.28;64.04;101689.03;146604;586;46017;-78
2022/03/17 00:35:42;;;;;;;;;27.75;26.25;;;;;8.27;63.99;101687.25;146604;602;47010;-82
2022/03/17 00:38:34;;;;;;;;;29.50;24.50;;;;;8.29;63.53;101693.44;146601;606;46020;-77
2022/03/17 00:41:26;;;;;;;;;30.25;24.25;;;;;8.31;63.42;101696.12;146606;596;46021;-76
2022/03/17 00:44:18;;;;;;;;;28.75;27.75;;;;;8.32;63.19;101693.66;146604;789;47012;-77
2022/03/17 00:47:10;;;;;;;;;29.50;26.50;;;;;8.33;62.99;101698.03;146607;604;46020;-82
2022/03/17 00:50:02;;;;;;;;;36.25;30.00;;;;;8.32;63.40;101691.09;146604;599;46016;-81
2022/03/17 00:52:54;;;;;;;;;35.50;30.50;;;;;8.30;63.65;101690.06;146606;577;47010;-74
2022/03/17 00:55:46;;;;;;;;;38.75;32.75;;;;;8.26;64.20;101689.72;146604;603;46014;-75
2022/03/17 00:58:39;;;;;;;;;48.50;38.00;;;;;8.26;64.60;101700.06;146606;677;46029;-75
2022/03/17 01:01:31;;;;;;;;;39.00;33.25;;;;;8.23;63.94;101702.41;146603;581;46921;-76
2022/03/17 01:04:23;;;;;;;;;34.75;31.50;;;;;8.20;64.06;101703.06;146604;606;46021;-76
2022/03/17 01:07:15;;;;;;;;;61.75;47.25;;;;;8.15;65.07;101704.41;146603;586;46016;-75
2022/03/17 01:10:17;;;;;;;;;50.00;41.25;;;;;8.09;65.95;101703.94;146606;567;46021;-77
2022/03/17 01:13:10;;;;;;;;;34.00;30.00;;;;;8.01;65.93;101699.88;146604;712;46016;-76
2022/03/17 01:16:02;;;;;;;;;35.50;29.25;;;;;7.91;65.49;101685.31;146604;646;46020;-74
2022/03/17 01:18:54;;;;;;;;;32.75;25.25;;;;;7.87;65.74;101689.34;146605;599;46016;-75
2022/03/17 01:21:46;;;;;;;;;25.25;23.00;;;;;7.82;65.51;101693.28;146606;569;46020;-74
2022/03/17 01:24:38;;;;;;;;;35.00;28.50;;;;;7.79;64.84;101695.63;146603;626;46012;-74
2022/03/17 01:27:30;;;;;;;;;57.75;47.75;;;;;7.78;65.58;101698.97;146605;622;46010;-74
2022/03/17 01:30:22;;;;;;;;;34.00;30.50;;;;;7.76;66.53;101705.72;146603;584;45921;-74
2022/03/17 01:33:14;;;;;;;;;39.50;32.00;;;;;7.71;66.30;101706.12;146603;602;46021;-73
2022/03/17 01:36:06;;;;;;;;;33.75;32.25;;;;;7.66;66.04;101712.59;146605;608;45016;-74
2022/03/17 01:38:58;;;;;;;;;38.25;32.50;;;;;7.65;66.48;101714.28;146603;601;46020;-74
2022/03/17 01:41:50;;;;;;;;;35.50;31.25;;;;;7.61;66.34;101715.72;146605;640;47012;-74
2022/03/17 01:44:43;;;;;;;;;33.00;30.25;;;;;7.58;66.84;101724.91;146607;595;46010;-74
2022/03/17 01:47:36;;;;;;;;;39.25;34.75;;;;;7.51;67.02;101725.22;146604;570;46014;-74
2022/03/17 01:50:29;;;;;;;;;35.50;31.00;;;;;7.47;66.75;101716.31;146604;636;46020;-74
2022/03/17 01:53:22;;;;;;;;;39.50;32.00;;;;;7.48;66.20;101723.28;146604;574;46012;-74
2022/03/17 01:56:14;;;;;;;;;34.50;31.50;;;;;7.52;66.30;101725.34;146606;645;46020;-74
2022/03/17 01:59:06;;;;;;;;;32.50;30.25;;;;;7.59;66.45;101718.97;146604;619;46012;-73
2022/03/17 02:01:58;;;;;;;;;25.75;24.25;;;;;7.62;67.15;101716.62;146603;637;46010;-73
2022/03/17 02:04:51;;;;;;;;;26.50;23.75;;;;;7.62;66.90;101714.03;146597;597;47922;-75
2022/03/17 02:08:01;;;;;;;;;28.00;23.75;;;;;7.60;65.61;101715.59;146608;626;46020;-75
2022/03/17 02:14:03;;;;;;;;;25.25;23.50;;;;;7.61;66.04;101730.31;146607;580;46020;-75
2022/03/17 02:16:56;;;;;;;;;29.25;27.25;;;;;7.62;66.16;101733.00;146605;581;46015;-75
2022/03/17 02:19:49;;;;;;;;;29.75;26.00;;;;;7.62;65.58;101739.84;146604;569;46021;-75
2022/03/17 02:22:50;;;;;;;;;35.25;30.00;;;;;7.56;65.90;101735.09;146602;606;47012;-78
2022/03/17 02:25:42;;;;;;;;;39.25;33.75;;;;;7.45;66.88;101732.47;146607;570;45021;-75
2022/03/17 02:28:36;;;;;;;;;42.00;33.25;;;;;7.35;67.26;101736.91;146604;574;47014;-75
2022/03/17 02:31:28;;;;;;;;;35.50;31.00;;;;;7.26;67.59;101736.16;146605;586;46020;-75
2022/03/17 02:34:21;;;;;;;;;39.50;33.00;;;;;7.18;68.03;101738.09;146603;688;46016;-74
2022/03/17 02:37:15;;;;;;;;;37.25;32.00;;;;;7.16;67.51;101741.34;146606;570;46010;-74
2022/03/17 02:40:10;;;;;;;;;37.00;33.00;;;;;7.13;66.93;101748.81;146605;624;46012;-73
2022/03/17 02:43:05;;;;;;;;;40.25;32.75;;;;;7.15;67.20;101750.75;146606;608;46020;-73
2022/03/17 02:45:56;;;;;;;;;44.50;36.00;;;;;7.11;68.39;101742.66;146603;576;47012;-74
2022/03/17 02:48:49;;;;;;;;;45.25;35.75;;;;;7.03;68.53;101741.13;146605;603;46020;-79
2022/03/17 02:51:41;;;;;;;;;48.50;38.00;;;;;6.89;69.73;101730.59;146602;578;46016;-85
2022/03/17 02:54:33;;;;;;;;;43.00;34.75;;;;;6.79;71.34;101740.00;146605;614;46021;-85
2022/03/17 02:57:25;;;;;;;;;43.75;37.00;;;;;6.70;71.74;101733.34;146605;576;45043;-90
2022/03/17 03:00:18;;;;;;;;;46.75;36.50;;;;;6.73;70.62;101740.44;146604;595;46020;-83
2022/03/17 03:03:10;;;;;;;;;46.75;35.50;;;;;6.74;71.23;101751.63;146603;591;46024;-86
2022/03/17 03:06:02;;;;;;;;;38.25;33.50;;;;;6.75;69.66;101751.75;146608;592;46012;-86
2022/03/17 03:08:54;;;;;;;;;36.25;32.00;;;;;6.79;68.69;101756.41;146603;668;46025;-85
2022/03/17 03:11:47;;;;;;;;;47.25;36.75;;;;;6.88;69.04;101757.12;146604;574;46020;-90
2022/03/17 03:14:39;;;;;;;;;43.25;35.25;;;;;6.99;68.56;101754.56;146603;590;46016;-82
2022/03/17 03:17:32;;;;;;;;;40.50;32.75;;;;;7.07;69.50;101753.47;146606;567;46010;-85
2022/03/17 03:20:24;;;;;;;;;41.00;33.25;;;;;7.11;69.15;101764.19;146604;564;46014;-83
2022/03/17 03:23:16;;;;;;;;;32.75;29.25;;;;;7.07;70.72;101758.63;146604;636;46020;-85
2022/03/17 03:26:08;;;;;;;;;33.25;29.25;;;;;7.00;71.39;101758.91;146604;588;46017;-84
2022/03/17 03:29:03;;;;;;;;;29.50;24.25;;;;;6.88;73.00;101757.12;146604;576;46010;-74
2022/03/17 03:31:57;;;;;;;;;29.25;27.25;;;;;6.85;70.85;101750.81;146605;566;46017;-74
2022/03/17 03:34:49;;;;;;;;;31.25;27.00;;;;;6.87;70.12;101750.19;146607;628;46010;-78
2022/03/17 03:37:41;;;;;;;;;29.00;27.00;;;;;6.90;70.07;101765.00;146603;684;46012;-78
2022/03/17 03:40:33;;;;;;;;;33.50;28.25;;;;;6.93;69.50;101768.72;146629;625;45010;-79
2022/03/17 03:43:25;;;;;;;;;26.00;24.50;;;;;7.00;68.69;101775.28;146629;563;45012;-79
2022/03/17 03:46:18;;;;;;;;;31.00;28.25;;;;;7.07;69.56;101785.34;146628;656;45021;-78
2022/03/17 03:49:10;;;;;;;;;92.33;80.67;;;;;7.16;69.47;101780.03;146631;599;45026;-78
2022/03/17 03:52:02;;;;;;;;;32.50;28.00;;;;;7.16;70.02;101778.38;146631;600;45020;-79
2022/03/17 03:54:54;;;;;;;;;90.67;80.67;;;;;7.20;68.93;101788.94;146633;651;45031;-78
2022/03/17 03:57:47;;;;;;;;;64.00;49.50;;;;;7.20;68.87;101782.09;146635;630;45012;-79
2022/03/17 04:00:41;;;;;;;;;68.00;52.75;;;;;7.24;69.26;101785.81;146625;597;45016;-79
2022/03/17 04:03:33;;;;;;;;;36.50;32.50;;;;;7.19;69.70;101777.69;146628;572;45010;-78
2022/03/17 04:06:25;;;;;;;;;38.25;33.25;;;;;7.20;68.73;101782.09;146624;626;45016;-80
2022/03/17 04:09:19;;;;;;;;;37.75;32.25;;;;;7.23;68.61;101791.75;146628;564;45030;-79
2022/03/17 04:12:13;;;;;;;;;40.75;34.75;;;;;7.25;69.28;101788.50;146626;575;45016;-78
2022/03/17 04:15:05;;;;;;;;;32.50;31.25;;;;;7.24;68.70;101791.88;146627;593;45010;-80
2022/03/17 04:17:57;;;;;;;;;48.75;37.50;;;;;7.22;70.37;101796.00;146629;574;45014;-83
2022/03/17 04:20:49;;;;;;;;;34.00;31.25;;;;;7.17;70.25;101794.75;146629;663;45020;-84
2022/03/17 04:23:41;;;;;;;;;50.75;41.25;;;;;7.14;70.30;101794.50;146622;670;45010;-85
2022/03/17 04:26:34;;;;;;;;;36.25;31.75;;;;;7.14;69.23;101809.97;146626;586;45010;-85
2022/03/17 04:29:28;;;;;;;;;35.25;31.50;;;;;7.12;70.99;101801.19;146627;582;45015;-82
2022/03/17 04:32:20;;;;;;;;;37.75;34.00;;;;;7.10;70.00;101815.63;146628;595;46010;-83
2022/03/17 04:35:12;;;;;;;;;34.00;30.75;;;;;7.00;69.56;101800.19;146627;644;45014;-82
2022/03/17 04:38:04;;;;;;;;;40.75;32.00;;;;;7.03;70.04;101803.00;146627;640;45011;-76
2022/03/17 04:40:56;;;;;;;;;43.75;36.50;;;;;7.06;69.96;101811.00;146604;607;46014;-77
2022/03/17 04:43:48;;;;;;;;;45.50;38.75;;;;;7.04;69.94;101818.62;146606;580;46020;-79
2022/03/17 04:46:46;;;;;;;;;41.25;34.00;;;;;7.02;70.43;101816.69;146604;579;46014;-76
2022/03/17 04:49:38;;;;;;;;;54.75;44.25;;;;;7.02;69.98;101825.31;146606;619;46012;-85
2022/03/17 04:55:40;;;;;;;;;43.75;36.25;;;;;7.05;70.56;101840.16;146602;578;46022;-78
2022/03/17 04:58:33;;;;;;;;;36.00;32.75;;;;;7.06;69.65;101829.94;146604;595;46015;-78
2022/03/17 05:01:25;;;;;;;;;48.00;35.75;;;;;7.09;69.98;101837.03;146606;569;46028;-80
2022/03/17 05:04:17;;;;;;;;;41.25;34.00;;;;;7.12;71.73;101837.31;146605;572;46016;-79
2022/03/17 05:07:09;;;;;;;;;43.25;36.00;;;;;7.15;72.90;101830.72;146604;637;46011;-79
2022/03/17 05:10:02;;;;;;;;;41.75;33.25;;;;;7.23;71.06;101828.78;146604;566;46012;-78
2022/03/17 05:12:54;;;;;;;;;39.00;34.00;;;;;7.35;70.77;101834.94;146607;586;45022;-75
2022/03/17 05:15:46;;;;;;;;;41.25;36.25;;;;;7.55;71.41;101838.25;146602;586;47014;-75
2022/03/17 05:18:38;;;;;;;;;36.75;31.50;;;;;7.78;69.76;101834.91;146608;637;47010;-75
2022/03/17 05:21:30;;;;;;;;;29.75;28.75;;;;;7.97;69.01;101842.44;146602;649;46016;-84
2022/03/17 05:24:22;;;;;;;;;39.00;34.50;;;;;8.13;68.11;101854.88;146603;666;46020;-85
2022/03/17 05:27:14;;;;;;;;;38.50;34.00;;;;;8.21;67.75;101852.12;146603;594;46016;-86
2022/03/17 05:30:06;;;;;;;;;51.25;38.50;;;;;8.26;67.77;101862.84;146605;615;46029;-83
2022/03/17 05:32:59;;;;;;;;;49.50;40.25;;;;;8.33;67.37;101868.59;146605;572;45919;-88
2022/03/17 05:35:51;;;;;;;;;55.25;43.00;;;;;8.40;66.81;101864.84;146607;570;46020;-86
2022/03/17 05:38:42;;;;;;;;;52.75;42.75;;;;;8.50;66.79;101871.63;146601;624;46017;-84
2022/03/17 05:41:35;;;;;;;;;66.25;52.50;;;;;8.60;66.48;101875.81;146605;584;46020;-85
2022/03/17 05:44:26;;;;;;;;;79.67;69.33;;;;;8.70;66.42;101884.44;146607;676;46012;-85
2022/03/17 05:47:18;;;;;;;;;74.67;58.33;;;;;8.79;66.54;101889.41;146612;569;45020;-86
2022/03/17 05:50:13;;;;;;;;;78.33;67.00;;;;;8.89;66.29;101891.91;146602;568;46016;-84
2022/03/17 05:53:06;;;;;;;;;72.00;54.50;;;;;8.97;66.68;101892.47;146610;590;46010;-83
2022/03/17 05:55:59;;;;;;;;;72.00;54.75;;;;;8.98;67.92;101896.91;146605;607;46014;-84
2022/03/17 05:58:51;;;;;;;;;70.00;54.00;;;;;8.97;66.68;101902.81;146605;565;46021;-86
2022/03/17 06:01:43;;;;;;;;;62.25;48.50;;;;;9.04;66.82;101910.31;146603;620;46016;-86
2022/03/17 06:04:38;;;;;;;;;60.50;47.75;;;;;9.13;67.08;101904.94;146606;611;47010;-85
2022/03/17 06:07:46;;;;;;;;;62.50;48.00;;;;;9.22;66.11;101913.34;146605;672;46013;-77
2022/03/17 06:10:39;;;;;;;;;60.50;47.25;;;;;9.31;66.12;101920.91;146606;569;46020;-81
2022/03/17 06:13:32;;;;;;;;;59.00;47.00;;;;;9.43;66.30;101930.50;146604;585;46017;-81
2022/03/17 06:16:24;;;;;;;;;66.75;51.75;;;;;9.50;65.78;101916.31;146604;565;48010;-81
2022/03/17 06:19:16;;;;;;;;;67.25;52.00;;;;;9.60;66.40;101931.78;146599;604;46016;-79
2022/03/17 06:22:08;;;;;;;;;62.50;50.00;;;;;9.63;65.73;101932.00;146602;570;46020;-76
2022/03/17 06:25:00;;;;;;;;;57.25;46.25;;;;;9.69;65.50;101935.06;146604;584;46014;-75
2022/03/17 06:27:53;;;;;;;;;58.25;46.25;;;;;9.78;65.45;101932.25;146606;601;46010;-75
2022/03/17 06:30:45;;;;;;;;;58.50;47.00;;;;;9.87;65.18;101930.31;146604;646;45485;-78
2022/03/17 06:33:37;;;;;;;;;56.75;47.00;;;;;10.06;64.70;101935.16;146606;676;46010;-79
2022/03/17 06:36:29;;;;;;;;;52.25;42.25;;;;;10.17;63.90;101944.59;146603;660;46016;-78
2022/03/17 06:39:21;;;;;;;;;70.75;56.75;;;;;10.32;64.15;101951.72;146607;660;46010;-77
2022/03/17 06:42:13;;;;;;;;;64.00;49.75;;;;;10.49;63.80;101942.53;146603;694;46016;-78
2022/03/17 06:45:06;;;;;;;;;72.00;58.00;;;;;10.66;64.00;101941.16;146602;567;46021;-84
2022/03/17 06:47:59;;;;;;;;;71.33;56.33;;;;;10.79;63.59;101939.50;146604;672;46012;-85
2022/03/17 06:50:51;;;;;;;;;72.67;60.67;;;;;10.94;63.45;101950.06;146605;564;45021;-80
2022/03/17 06:53:43;;;;;;;;;67.75;52.25;;;;;11.09;63.15;101940.72;146605;581;46014;-81
2022/03/17 06:56:35;;;;;;;;;72.25;59.75;;;;;11.24;62.88;101946.03;146607;577;45020;-81
2022/03/17 06:59:27;;;;;;;;;74.00;60.00;;;;;11.41;62.24;101949.81;146604;577;46920;-79
2022/03/17 07:02:20;;;;;;;;;75.33;63.33;;;;;11.59;61.76;101947.53;146605;623;46020;-79
2022/03/17 07:05:13;;;;;;;;;82.33;70.33;;;;;11.71;61.15;101950.03;146603;593;46016;-80
2022/03/17 07:08:05;;;;;;;;;79.00;71.00;;;;;11.80;61.03;101955.84;146615;571;46020;-81
2022/03/17 07:10:57;;;;;;;;;74.33;65.00;;;;;11.94;60.95;101960.28;146610;584;46028;-78
2022/03/17 07:13:49;;;;;;;;;71.75;54.25;;;;;12.12;61.37;101962.25;146611;655;46021;-81
2022/03/17 07:16:41;;;;;;;;;70.25;60.00;;;;;12.27;61.28;101960.66;146603;587;46014;-81
2022/03/17 07:19:34;;;;;;;;;68.25;53.00;;;;;12.43;61.24;101963.44;146602;599;46010;-86
2022/03/17 07:22:35;;;;;;;;;66.25;54.00;;;;;12.60;60.63;101958.41;146602;565;47012;-87
2022/03/17 07:25:28;;;;;;;;;68.50;54.25;;;;;12.78;60.44;101962.16;146604;715;46020;-88
2022/03/17 07:28:21;;;;;;;;;64.25;50.75;;;;;13.01;59.97;101960.94;146603;570;46016;-87
2022/03/17 07:31:12;;;;;;;;;65.75;52.00;;;;;13.27;59.70;101962.59;146605;584;47010;-78
2022/03/17 07:34:05;;;;;;;;;68.75;53.00;;;;;13.45;59.13;101970.56;146603;679;46015;-84
2022/03/17 07:36:57;;;;;;;;;60.00;48.25;;;;;13.60;58.00;101963.66;146606;742;46010;-83
2022/03/17 07:39:49;;;;;;;;;68.00;54.50;;;;;13.77;58.01;101971.56;146604;651;46016;-83
2022/03/17 07:42:41;;;;;;;;;55.75;45.00;;;;;13.98;57.21;101958.87;146606;633;47010;-78
2022/03/17 07:45:34;;;;;;;;;65.00;49.75;;;;;14.14;57.06;101961.53;146605;611;46021;-80
2022/03/17 07:48:26;;;;;;;;;63.25;47.00;;;;;14.32;56.22;101964.28;146605;615;46020;-81
2022/03/17 07:51:20;;;;;;;;;54.00;44.00;;;;;14.45;56.00;101971.06;146604;571;46014;-82
2022/03/17 07:54:12;;;;;;;;;57.00;44.75;;;;;14.52;54.89;101971.53;146604;564;46010;-82
2022/03/17 07:57:06;;;;;;;;;50.00;41.75;;;;;14.57;55.95;101963.94;146603;581;46016;-83
2022/03/17 07:59:58;;;;;;;;;50.50;39.75;;;;;14.55;55.53;101963.88;146602;612;47012;-81
2022/03/17 08:02:50;;;;;;;;;48.25;40.00;;;;;14.62;55.34;101967.72;146605;572;46016;-82
2022/03/17 08:05:43;;;;;;;;;53.00;42.50;;;;;14.71;55.33;101965.63;146605;626;46012;-80
2022/03/17 08:08:35;;;;;;;;;49.50;40.75;;;;;14.84;54.77;101963.66;146603;661;46919;-75
2022/03/17 08:11:27;;;;;;;;;55.50;44.50;;;;;14.99;54.98;101969.72;146608;581;46011;-75
2022/03/17 08:14:20;;;;;;;;;50.75;40.00;;;;;15.15;53.72;101967.06;146603;606;46034;-76
2022/03/17 08:17:12;;;;;;;;;29.25;21.75;;;;;15.25;54.34;101971.06;146608;576;45020;-72
2022/03/17 08:20:05;;;;;;;;;47.75;38.00;;;;;15.28;54.09;101978.16;146601;598;46017;-83
2022/03/17 08:22:57;;;;;;;;;44.00;35.50;;;;;15.24;54.45;101979.72;146605;588;46020;-83
2022/03/17 08:25:49;;;;;;;;;46.00;38.00;;;;;15.27;54.85;101976.37;146602;646;46030;-82
2022/03/17 08:28:41;;;;;;;;;33.75;27.25;;;;;15.31;53.79;101973.09;146607;625;46021;-84
2022/03/17 08:31:33;;;;;;;;;32.50;27.50;;;;;15.24;52.60;101984.97;146604;608;46016;-82
2022/03/17 08:34:26;;;;;;;;;30.75;27.50;;;;;15.11;53.05;101977.25;146605;625;47010;-83
2022/03/17 08:37:19;;;;;;;;;32.25;27.75;;;;;15.06;53.63;101982.25;146603;622;47012;-83
2022/03/17 08:40:12;;;;;;;;;33.25;29.50;;;;;15.12;54.08;101979.97;146603;653;46010;-84
2022/03/17 08:43:04;;;;;;;;;30.50;28.00;;;;;15.21;52.97;101983.06;146604;632;46012;-82
2022/03/17 08:49:19;;;;;;;;;29.00;26.75;;;;;15.55;52.04;101978.69;146602;614;46017;-83
2022/03/17 08:52:11;;;;;;;;;31.50;29.00;;;;;15.63;52.42;101990.44;146606;625;47010;-84
2022/03/17 08:55:03;;;;;;;;;28.50;27.00;;;;;15.66;51.78;101986.25;146603;569;46920;-84
2022/03/17 08:57:55;;;;;;;;;29.25;27.50;;;;;15.73;51.54;101989.19;146607;621;46010;-84
2022/03/17 09:00:48;;;;;;;;;25.50;23.25;;;;;15.83;50.90;101996.72;146602;657;46016;-87
2022/03/17 09:03:41;;;;;;;;;24.75;24.75;;;;;15.84;50.81;101993.28;146604;659;47011;-87
2022/03/17 09:06:36;;;;;;;;;32.00;28.75;;;;;15.86;50.96;101997.75;146602;593;46016;-84
2022/03/17 09:09:33;;;;;;;;;33.75;29.25;;;;;15.84;51.23;101993.28;146607;569;46020;-87
2022/03/17 09:12:25;;;;;;;;;25.50;23.25;;;;;15.90;51.19;101998.81;146604;575;46014;-87
2022/03/17 09:15:18;;;;;;;;;29.25;27.75;;;;;16.01;50.28;102002.87;146604;565;47010;-83
2022/03/17 09:18:15;;;;;;;;;27.50;27.00;;;;;16.06;50.93;102003.97;146604;581;47015;-85
2022/03/17 09:21:07;;;;;;;;;30.00;28.75;;;;;16.00;50.23;102015.84;146605;626;46020;-82
2022/03/17 09:24:00;;;;;;;;;31.00;27.00;;;;;15.98;49.86;102010.56;146604;570;46016;-87
2022/03/17 09:26:52;;;;;;;;;18.50;17.50;;;;;15.99;49.65;102004.50;146606;602;47010;-86
2022/03/17 09:29:43;;;;;;;;;25.50;24.75;;;;;16.03;50.40;102003.81;146604;580;46013;-84
2022/03/17 09:32:36;;;;;;;;;30.00;27.25;;;;;16.07;50.34;102003.13;146607;620;46010;-85
2022/03/17 09:35:27;;;;;;;;;26.75;26.50;;;;;16.16;50.54;102007.94;146604;614;46012;-84
2022/03/17 09:38:20;;;;;;;;;32.00;28.00;;;;;16.22;50.40;102005.63;146603;580;46020;-85
2022/03/17 09:41:25;;;;;;;;;30.75;27.00;;;;;16.29;50.90;102012.03;146601;578;47014;-85
2022/03/17 09:44:18;;;;;;;;;22.50;22.00;;;;;16.42;48.92;102011.81;146603;651;46024;-84
2022/03/17 09:47:11;;;;;;;;;27.25;26.00;;;;;16.54;48.57;102009.78;146605;640;46016;-85
2022/03/17 09:50:04;;;;;;;;;21.75;19.25;;;;;16.68;49.54;102007.81;146607;619;46021;-86
2022/03/17 09:52:56;;;;;;;;;30.00;28.25;;;;;16.76;48.71;102001.25;146604;629;46016;-83
2022/03/17 09:55:48;;;;;;;;;26.75;25.00;;;;;16.87;48.98;102004.34;146607;592;46021;-84
2022/03/17 09:58:40;;;;;;;;;26.75;23.25;;;;;17.04;47.16;101999.87;146605;571;45919;-84
2022/03/17 10:01:32;;;;;;;;;24.50;22.00;;;;;17.12;47.61;102003.75;146605;563;46020;-83
2022/03/17 10:04:24;;;;;;;;;25.50;23.25;;;;;17.22;46.56;102002.44;146603;600;46012;-86
2022/03/17 10:07:21;;;;;;;;;27.25;25.00;;;;;17.28;47.02;102005.31;146606;595;46010;-84
2022/03/17 10:10:14;;;;;;;;;25.00;20.50;;;;;17.37;46.75;102000.47;146601;578;46017;-83
2022/03/17 10:13:17;;;;;;;;;25.25;24.25;;;;;17.50;47.12;102000.19;146606;569;45920;-82
2022/03/17 10:16:28;;;;;;;;;21.00;20.25;;;;;17.50;47.28;102000.19;146603;597;46915;-86
2022/03/17 10:19:20;;;;;;;;;20.00;19.75;;;;;17.45;45.49;102000.84;146606;698;46021;-81
2022/03/17 10:22:15;;;;;;;;;25.25;23.75;;;;;17.43;44.07;102006.00;146605;571;46012;-82
2022/03/17 10:25:08;;;;;;;;;24.00;21.75;;;;;17.45;46.38;102006.09;146606;616;47010;-80
2022/03/17 10:28:01;;;;;;;;;24.25;22.00;;;;;17.30;44.06;102011.53;146604;565;47012;-82
2022/03/17 10:30:54;;;;;;;;;31.75;27.25;;;;;17.13;46.70;101996.78;146607;592;45020;-83
2022/03/17 10:33:48;;;;;;;;;26.50;23.50;;;;;16.92;47.59;102000.22;146602;569;46017;-84
2022/03/17 10:36:40;;;;;;;;;23.50;22.25;;;;;16.69;47.17;102001.75;146606;595;46010;-84
2022/03/17 10:39:42;;;;;;;;;25.25;20.50;;;;;16.49;48.98;101997.31;146605;616;46017;-84
2022/03/17 10:42:35;;;;;;;;;24.50;22.50;;;;;16.38;47.53;101997.66;146606;670;46010;-83
2022/03/17 10:45:32;;;;;;;;;21.25;20.00;;;;;16.42;47.51;101993.50;146602;572;47014;-82
2022/03/17 10:48:24;;;;;;;;;23.50;20.25;;;;;16.65;46.29;101996.31;146607;585;46020;-81
2022/03/17 10:51:41;;;;;;;;;22.25;19.50;;;;;16.88;47.91;101997.38;146604;584;46014;-83
2022/03/17 10:54:33;;;;;;;;;24.75;22.75;;;;;16.94;45.92;101990.69;146608;766;46011;-85
2022/03/17 10:57:27;;;;;;;;;28.75;25.25;;;;;16.94;46.27;102002.91;146605;597;46034;-82
2022/03/17 11:00:24;;;;;;;;;24.25;22.00;;;;;16.95;46.09;101987.28;146605;584;46020;-83
2022/03/17 11:03:17;;;;;;;;;22.25;20.75;;;;;17.05;45.94;101984.22;146601;570;46016;-83
2022/03/17 11:06:10;;;;;;;;;22.50;20.75;;;;;17.19;45.88;101987.44;146608;577;45020;-83
2022/03/17 11:09:03;;;;;;;;;25.25;24.75;;;;;17.44;46.19;101975.44;146603;598;47012;-83
2022/03/17 11:11:55;;;;;;;;;22.50;20.25;;;;;17.70;42.72;101971.31;146603;616;46021;-83
2022/03/17 11:14:53;;;;;;;;;26.50;21.25;;;;;17.87;43.61;101972.91;146602;649;46016;-82
2022/03/17 11:17:56;;;;;;;;;24.25;22.50;;;;;17.93;45.30;101972.28;146606;663;46020;-82
2022/03/17 11:20:48;;;;;;;;;24.00;21.75;;;;;17.78;43.26;101970.81;146603;576;46919;-81
2022/03/17 11:24:04;;;;;;;;;23.75;21.25;;;;;17.59;41.43;101972.56;146605;609;47010;-80
2022/03/17 11:27:19;;;;;;;;;27.50;23.50;;;;;17.29;45.64;101978.31;146602;575;46016;-85
2022/03/17 11:30:16;;;;;;;;;23.50;21.25;;;;;17.07;47.59;101968.56;146607;577;47010;-85
2022/03/17 11:33:30;;;;;;;;;25.25;24.25;;;;;16.93;49.05;101961.81;146601;590;46017;-85
2022/03/17 11:36:23;;;;;;;;;30.50;28.75;;;;;16.76;48.62;101961.03;146604;565;46020;-83
2022/03/17 11:39:22;;;;;;;;;28.50;26.50;;;;;16.67;48.44;101969.37;146602;617;46017;-83
2022/03/17 11:42:52;;;;;;;;;33.25;29.00;;;;;16.57;49.28;101967.12;146603;631;46020;-83
2022/03/17 11:45:44;;;;;;;;;31.75;28.50;;;;;16.26;48.48;101959.53;146603;624;46917;-85
2022/03/17 11:48:40;;;;;;;;;25.75;24.75;;;;;16.07;47.99;101957.75;146606;769;46020;-82
2022/03/17 11:51:32;;;;;;;;;32.50;26.75;;;;;16.05;49.61;101956.81;146604;587;46012;-83
2022/03/17 11:54:24;;;;;;;;;27.25;25.00;;;;;16.17;49.25;101960.91;146606;628;46021;-83
2022/03/17 11:57:16;;;;;;;;;32.50;28.75;;;;;16.32;47.17;101952.91;146605;658;47014;-82
2022/03/17 12:00:09;;;;;;;;;32.25;25.75;;;;;16.48;47.80;101951.91;146607;624;46010;-82
2022/03/17 12:03:11;;;;;;;;;30.00;27.75;;;;;16.57;48.46;101957.56;146604;564;46014;-83
2022/03/17 12:06:16;;;;;;;;;29.25;27.75;;;;;16.54;50.99;101943.41;146605;620;46010;-83
2022/03/17 12:09:15;;;;;;;;;30.75;27.50;;;;;16.48;47.97;101945.75;146602;602;47920;-82
2022/03/17 12:12:26;;;;;;;;;34.25;31.25;;;;;16.37;51.10;101956.63;146603;656;47012;-81
2022/03/17 12:15:40;;;;;;;;;34.00;29.75;;;;;15.71;54.25;101910.69;146598;593;49919;-80
2022/03/17 12:18:32;;;;;;;;;37.75;31.75;;;;;15.53;55.36;101928.94;146606;652;46021;-84
2022/03/17 12:22:22;;;;;;;;;34.25;30.25;;;;;15.41;54.51;101920.47;146605;573;46016;-83
2022/03/17 12:25:32;;;;;;;;;37.25;32.25;;;;;15.79;55.38;101976.44;146607;570;46010;-83
2022/03/17 12:28:25;;;;;;;;;39.00;32.75;;;;;15.97;54.31;101966.00;146603;636;46016;-81
2022/03/17 12:31:19;;;;;;;;;43.00;37.50;;;;;16.22;53.04;101962.84;146607;579;46021;-82
2022/03/17 12:34:11;;;;;;;;;49.25;41.00;;;;;16.26;52.04;101926.44;146603;683;47012;-79
2022/03/17 12:37:04;;;;;;;;;26.00;25.00;;;;;16.56;50.05;101962.72;146606;609;46020;-82
2022/03/17 12:39:59;;;;;;;;;16.00;13.50;;;;;16.44;47.16;101955.19;146605;706;46012;-83
2022/03/17 12:42:53;;;;;;;;;16.50;14.75;;;;;16.24;47.83;101961.22;146604;604;46010;-82
2022/03/17 12:45:49;;;;;;;;;32.75;29.25;;;;;15.93;47.57;101957.09;146606;635;45919;-81
2022/03/17 12:48:41;;;;;;;;;13.00;12.00;;;;;15.52;48.14;101911.47;146607;718;46010;-73
2022/03/17 12:51:33;;;;;;;;;12.50;12.25;;;;;15.57;47.89;101946.56;146602;564;46016;-72
2022/03/17 12:54:25;;;;;;;;;17.00;15.50;;;;;15.41;48.38;101949.22;146605;588;46021;-74
2022/03/17 12:57:18;;;;;;;;;29.75;27.50;;;;;15.29;47.94;101943.38;146604;584;47012;-76
2022/03/17 13:00:12;;;;;;;;;33.75;30.25;;;;;15.29;48.16;101945.97;146604;578;47010;-75
2022/03/17 13:03:05;;;;;;;;;17.00;16.50;;;;;15.31;48.07;101942.63;146605;610;46016;-75
2022/03/17 13:09:09;;;;;;;;;21.00;18.25;;;;;15.35;48.89;101944.56;146605;602;46030;-75
2022/03/17 13:15:26;;;;;;;;;14.75;14.50;;;;;15.55;49.14;101944.72;146604;599;46016;-77
2022/03/17 13:18:18;;;;;;;;;12.25;10.50;;;;;15.66;48.40;101944.41;146608;628;46021;-75
2022/03/17 13:21:14;;;;;;;;;14.25;13.75;;;;;15.75;48.30;101956.19;146605;572;46016;-76
2022/03/17 13:24:20;;;;;;;;;15.25;14.75;;;;;15.76;49.12;101951.03;146605;581;45050;-77
2022/03/17 13:27:12;;;;;;;;;12.75;10.25;;;;;15.77;48.90;101952.84;146604;606;46016;-75
2022/03/17 13:30:09;;;;;;;;;13.75;13.25;;;;;15.79;47.00;101953.78;146606;582;46013;-77